sensor_id;sensor_type;location;lat;lon;timestamp;pressure;altitude;pressure_sealevel;temperature;humidity
65760;BME280;52496;51.082;5.066;2022-12-29T00:01:18;100086.75;;;10.94;100.00
65760;BME280;52496;51.082;5.066;2022-12-29T00:03:49;100072.34;;;10.95;100.00
65760;BME280;52496;51.082;5.066;2022-12-29T00:06:19;100080.19;;;10.97;100.00
65760;BME280;52496;51.082;5.066;2022-12-29T00:08:50;100075.47;;;10.99;100.00
65760;BME280;52496;51.082;5.066;2022-12-29T00:11:25;100078.53;;;11.02;100.00
65760;BME280;52496;51.082;5.066;2022-12-29T00:13:56;100076.47;;;11.05;100.00
65760;BME280;52496;51.082;5.066;2022-12-29T00:16:45;100066.19;;;11.08;100.00
65760;BME280;52496;51.082;5.066;2022-12-29T00:19:16;100071.72;;;11.13;100.00
65760;BME280;52496;51.082;5.066;2022-12-29T00:22:05;100062.69;;;11.14;100.00
65760;BME280;52496;51.082;5.066;2022-12-29T00:24:55;100053.44;;;11.17;100.00
65760;BME280;52496;51.082;5.066;2022-12-29T00:27:44;100062.06;;;11.19;100.00
65760;BME280;52496;51.082;5.066;2022-12-29T00:30:33;100062.69;;;11.21;100.00
65760;BME280;52496;51.082;5.066;2022-12-29T00:33:31;100064.94;;;11.24;100.00
65760;BME280;52496;51.082;5.066;2022-12-29T00:36:32;100066.38;;;11.27;100.00
65760;BME280;52496;51.082;5.066;2022-12-29T00:39:16;100059.56;;;11.31;100.00
65760;BME280;52496;51.082;5.066;2022-12-29T00:42:07;100047.22;;;11.36;100.00
65760;BME280;52496;51.082;5.066;2022-12-29T00:45:17;100047.63;;;11.40;100.00
65760;BME280;52496;51.082;5.066;2022-12-29T00:47:47;100045.75;;;11.40;100.00
65760;BME280;52496;51.082;5.066;2022-12-29T00:50:18;100046.38;;;11.42;100.00
65760;BME280;52496;51.082;5.066;2022-12-29T00:52:48;100035.69;;;11.42;100.00
65760;BME280;52496;51.082;5.066;2022-12-29T00:55:19;100041.84;;;11.43;100.00
65760;BME280;52496;51.082;5.066;2022-12-29T00:57:49;100036.88;;;11.46;100.00
65760;BME280;52496;51.082;5.066;2022-12-29T01:00:20;100047.19;;;11.49;100.00
65760;BME280;52496;51.082;5.066;2022-12-29T01:02:51;100045.75;;;11.54;100.00
65760;BME280;52496;51.082;5.066;2022-12-29T01:05:21;100050.88;;;11.55;100.00
65760;BME280;52496;51.082;5.066;2022-12-29T01:07:52;100045.31;;;11.57;100.00
65760;BME280;52496;51.082;5.066;2022-12-29T01:10:22;100039.75;;;11.58;100.00
65760;BME280;52496;51.082;5.066;2022-12-29T01:12:53;100061.97;;;11.59;100.00
65760;BME280;52496;51.082;5.066;2022-12-29T01:15:23;100043.44;;;11.64;100.00
65760;BME280;52496;51.082;5.066;2022-12-29T01:17:54;100028.81;;;11.66;100.00
65760;BME280;52496;51.082;5.066;2022-12-29T01:20:24;100043.63;;;11.69;100.00
65760;BME280;52496;51.082;5.066;2022-12-29T01:22:55;100039.69;;;11.71;100.00
65760;BME280;52496;51.082;5.066;2022-12-29T01:25:25;100032.28;;;11.74;100.00
65760;BME280;52496;51.082;5.066;2022-12-29T01:27:56;100036.41;;;11.76;100.00
65760;BME280;52496;51.082;5.066;2022-12-29T01:30:27;100043.38;;;11.77;100.00
65760;BME280;52496;51.082;5.066;2022-12-29T01:32:57;100038.88;;;11.78;100.00
65760;BME280;52496;51.082;5.066;2022-12-29T01:35:28;100012.91;;;11.78;100.00
65760;BME280;52496;51.082;5.066;2022-12-29T01:37:59;100037.84;;;11.79;100.00
65760;BME280;52496;51.082;5.066;2022-12-29T01:40:29;100028.97;;;11.78;100.00
65760;BME280;52496;51.082;5.066;2022-12-29T01:43:00;100016.19;;;11.80;100.00
65760;BME280;52496;51.082;5.066;2022-12-29T01:45:30;100030.63;;;11.79;100.00
65760;BME280;52496;51.082;5.066;2022-12-29T01:48:03;100024.44;;;11.79;100.00
65760;BME280;52496;51.082;5.066;2022-12-29T01:50:41;100035.97;;;11.79;100.00
65760;BME280;52496;51.082;5.066;2022-12-29T01:53:24;100039.69;;;11.78;100.00
65760;BME280;52496;51.082;5.066;2022-12-29T01:56:00;100034.75;;;11.75;100.00
65760;BME280;52496;51.082;5.066;2022-12-29T01:58:37;100051.25;;;11.72;100.00
65760;BME280;52496;51.082;5.066;2022-12-29T02:01:10;100048.38;;;11.67;100.00
65760;BME280;52496;51.082;5.066;2022-12-29T02:03:41;100044.25;;;11.64;100.00
65760;BME280;52496;51.082;5.066;2022-12-29T02:06:20;100040.38;;;11.60;100.00
65760;BME280;52496;51.082;5.066;2022-12-29T02:08:53;100035.63;;;11.56;100.00
65760;BME280;52496;51.082;5.066;2022-12-29T02:11:26;100038.13;;;11.51;100.00
65760;BME280;52496;51.082;5.066;2022-12-29T02:13:58;100025.16;;;11.47;100.00
65760;BME280;52496;51.082;5.066;2022-12-29T02:16:47;100030.94;;;11.44;100.00
65760;BME280;52496;51.082;5.066;2022-12-29T02:24:53;100016.56;;;11.32;100.00
65760;BME280;52496;51.082;5.066;2022-12-29T02:30:45;100000.31;;;11.20;100.00
65760;BME280;52496;51.082;5.066;2022-12-29T02:33:39;100014.72;;;11.13;100.00
65760;BME280;52496;51.082;5.066;2022-12-29T02:39:38;100011.25;;;10.92;100.00
65760;BME280;52496;51.082;5.066;2022-12-29T02:45:02;100011.66;;;10.76;100.00
65760;BME280;52496;51.082;5.066;2022-12-29T02:51:03;100018.44;;;10.59;100.00
65760;BME280;52496;51.082;5.066;2022-12-29T02:53:34;100010.22;;;10.53;100.00
65760;BME280;52496;51.082;5.066;2022-12-29T02:56:25;100005.69;;;10.47;100.00
65760;BME280;52496;51.082;5.066;2022-12-29T02:58:55;100012.47;;;10.43;100.00
65760;BME280;52496;51.082;5.066;2022-12-29T03:04:36;100005.06;;;10.32;100.00
65760;BME280;52496;51.082;5.066;2022-12-29T03:07:19;100003.16;;;10.26;100.00
65760;BME280;52496;51.082;5.066;2022-12-29T03:10:07;100004.38;;;10.17;100.00
65760;BME280;52496;51.082;5.066;2022-12-29T03:15:57;99995.50;;;10.03;100.00
65760;BME280;52496;51.082;5.066;2022-12-29T03:18:56;99986.66;;;9.96;100.00
65760;BME280;52496;51.082;5.066;2022-12-29T03:21:38;99981.50;;;9.94;100.00
65760;BME280;52496;51.082;5.066;2022-12-29T03:24:31;99981.72;;;9.93;100.00
65760;BME280;52496;51.082;5.066;2022-12-29T03:27:04;99986.03;;;9.94;100.00
65760;BME280;52496;51.082;5.066;2022-12-29T03:29:40;99981.72;;;9.93;100.00
65760;BME280;52496;51.082;5.066;2022-12-29T03:32:14;99980.06;;;9.92;100.00
65760;BME280;52496;51.082;5.066;2022-12-29T03:34:46;99983.75;;;9.91;100.00
65760;BME280;52496;51.082;5.066;2022-12-29T03:37:23;100001.81;;;9.88;100.00
65760;BME280;52496;51.082;5.066;2022-12-29T03:39:54;99998.31;;;9.88;100.00
65760;BME280;52496;51.082;5.066;2022-12-29T03:42:26;100001.00;;;9.88;100.00
65760;BME280;52496;51.082;5.066;2022-12-29T03:45:00;100004.69;;;9.87;100.00
65760;BME280;52496;51.082;5.066;2022-12-29T03:47:31;100010.44;;;9.84;100.00
65760;BME280;52496;51.082;5.066;2022-12-29T03:50:02;100005.91;;;9.78;100.00
65760;BME280;52496;51.082;5.066;2022-12-29T03:52:32;100007.94;;;9.76;100.00
65760;BME280;52496;51.082;5.066;2022-12-29T03:55:03;100002.19;;;9.72;100.00
65760;BME280;52496;51.082;5.066;2022-12-29T03:57:34;100006.69;;;9.72;100.00
65760;BME280;52496;51.082;5.066;2022-12-29T04:00:06;99990.88;;;9.70;100.00
65760;BME280;52496;51.082;5.066;2022-12-29T04:02:37;99992.72;;;9.70;100.00
65760;BME280;52496;51.082;5.066;2022-12-29T04:05:07;99986.75;;;9.68;100.00
65760;BME280;52496;51.082;5.066;2022-12-29T04:07:38;100007.88;;;9.62;100.00
65760;BME280;52496;51.082;5.066;2022-12-29T04:10:09;100017.13;;;9.60;100.00
65760;BME280;52496;51.082;5.066;2022-12-29T04:12:39;100006.19;;;9.55;100.00
65760;BME280;52496;51.082;5.066;2022-12-29T04:15:12;100020.16;;;9.50;100.00
65760;BME280;52496;51.082;5.066;2022-12-29T04:17:42;100008.19;;;9.46;100.00
65760;BME280;52496;51.082;5.066;2022-12-29T04:20:15;100019.28;;;9.43;100.00
65760;BME280;52496;51.082;5.066;2022-12-29T04:23:05;100019.06;;;9.38;100.00
65760;BME280;52496;51.082;5.066;2022-12-29T04:25:48;100036.06;;;9.37;100.00
65760;BME280;52496;51.082;5.066;2022-12-29T04:28:19;100029.09;;;9.36;100.00
65760;BME280;52496;51.082;5.066;2022-12-29T04:30:50;100029.72;;;9.38;100.00
65760;BME280;52496;51.082;5.066;2022-12-29T04:33:21;100020.06;;;9.37;100.00
65760;BME280;52496;51.082;5.066;2022-12-29T04:35:53;100030.94;;;9.35;100.00
65760;BME280;52496;51.082;5.066;2022-12-29T04:38:24;100036.06;;;9.37;100.00
65760;BME280;52496;51.082;5.066;2022-12-29T04:40:55;100055.19;;;9.40;100.00
65760;BME280;52496;51.082;5.066;2022-12-29T04:43:26;100038.97;;;9.42;100.00
65760;BME280;52496;51.082;5.066;2022-12-29T04:45:57;100038.59;;;9.45;100.00
65760;BME280;52496;51.082;5.066;2022-12-29T04:48:27;100036.75;;;9.46;100.00
65760;BME280;52496;51.082;5.066;2022-12-29T04:51:06;100044.31;;;9.42;100.00
65760;BME280;52496;51.082;5.066;2022-12-29T04:53:36;100045.53;;;9.39;100.00
65760;BME280;52496;51.082;5.066;2022-12-29T04:56:07;100046.34;;;9.40;100.00
65760;BME280;52496;51.082;5.066;2022-12-29T04:58:39;100043.06;;;9.38;100.00
65760;BME280;52496;51.082;5.066;2022-12-29T05:01:11;100047.13;;;9.34;100.00
65760;BME280;52496;51.082;5.066;2022-12-29T05:03:41;100057.81;;;9.34;100.00
65760;BME280;52496;51.082;5.066;2022-12-29T05:06:13;100063.22;;;9.40;100.00
65760;BME280;52496;51.082;5.066;2022-12-29T05:08:43;100065.28;;;9.45;100.00
65760;BME280;52496;51.082;5.066;2022-12-29T05:11:14;100069.59;;;9.46;100.00
65760;BME280;52496;51.082;5.066;2022-12-29T05:13:45;100062.84;;;9.50;100.00
65760;BME280;52496;51.082;5.066;2022-12-29T05:16:16;100072.09;;;9.54;100.00
65760;BME280;52496;51.082;5.066;2022-12-29T05:18:47;100068.88;;;9.59;100.00
65760;BME280;52496;51.082;5.066;2022-12-29T05:21:17;100080.56;;;9.64;100.00
65760;BME280;52496;51.082;5.066;2022-12-29T05:23:48;100067.03;;;9.66;100.00
65760;BME280;52496;51.082;5.066;2022-12-29T05:26:18;100067.47;;;9.70;100.00
65760;BME280;52496;51.082;5.066;2022-12-29T05:28:49;100064.22;;;9.74;100.00
65760;BME280;52496;51.082;5.066;2022-12-29T05:31:20;100071.22;;;9.82;100.00
65760;BME280;52496;51.082;5.066;2022-12-29T05:33:51;100068.97;;;9.85;100.00
65760;BME280;52496;51.082;5.066;2022-12-29T05:36:21;100071.25;;;9.88;100.00
65760;BME280;52496;51.082;5.066;2022-12-29T05:38:52;100066.75;;;9.89;100.00
65760;BME280;52496;51.082;5.066;2022-12-29T05:41:22;100065.09;;;9.88;100.00
65760;BME280;52496;51.082;5.066;2022-12-29T05:43:53;100072.91;;;9.90;100.00
65760;BME280;52496;51.082;5.066;2022-12-29T05:46:23;100074.38;;;9.92;100.00
65760;BME280;52496;51.082;5.066;2022-12-29T05:48:54;100077.66;;;9.94;100.00
65760;BME280;52496;51.082;5.066;2022-12-29T05:51:24;100066.16;;;9.94;100.00
65760;BME280;52496;51.082;5.066;2022-12-29T05:53:55;100071.31;;;9.95;100.00
65760;BME280;52496;51.082;5.066;2022-12-29T05:56:26;100072.31;;;10.01;100.00
65760;BME280;52496;51.082;5.066;2022-12-29T05:58:56;100072.78;;;10.04;100.00
65760;BME280;52496;51.082;5.066;2022-12-29T06:01:27;100080.41;;;10.07;100.00
65760;BME280;52496;51.082;5.066;2022-12-29T06:03:58;100084.94;;;10.14;100.00
65760;BME280;52496;51.082;5.066;2022-12-29T06:06:28;100084.53;;;10.17;100.00
65760;BME280;52496;51.082;5.066;2022-12-29T06:08:59;100076.72;;;10.22;100.00
65760;BME280;52496;51.082;5.066;2022-12-29T06:11:29;100097.69;;;10.25;100.00
65760;BME280;52496;51.082;5.066;2022-12-29T06:14:00;100081.28;;;10.28;100.00
65760;BME280;52496;51.082;5.066;2022-12-29T06:16:31;100093.66;;;10.29;100.00
65760;BME280;52496;51.082;5.066;2022-12-29T06:19:01;100085.81;;;10.27;100.00
65760;BME280;52496;51.082;5.066;2022-12-29T06:21:32;100090.34;;;10.27;100.00
65760;BME280;52496;51.082;5.066;2022-12-29T06:24:03;100098.50;;;10.25;100.00
65760;BME280;52496;51.082;5.066;2022-12-29T06:26:34;100103.72;;;10.27;100.00
65760;BME280;52496;51.082;5.066;2022-12-29T06:29:04;100106.38;;;10.27;100.00
65760;BME280;52496;51.082;5.066;2022-12-29T06:31:35;100110.28;;;10.31;100.00
65760;BME280;52496;51.082;5.066;2022-12-29T06:34:06;100105.56;;;10.33;100.00
65760;BME280;52496;51.082;5.066;2022-12-29T06:36:36;100117.31;;;10.32;100.00
65760;BME280;52496;51.082;5.066;2022-12-29T06:39:07;100124.28;;;10.33;100.00
65760;BME280;52496;51.082;5.066;2022-12-29T06:41:37;100141.97;;;10.34;100.00
65760;BME280;52496;51.082;5.066;2022-12-29T06:44:08;100138.88;;;10.37;100.00
65760;BME280;52496;51.082;5.066;2022-12-29T06:46:38;100141.16;;;10.40;100.00
65760;BME280;52496;51.082;5.066;2022-12-29T06:49:09;100158.00;;;10.41;100.00
65760;BME280;52496;51.082;5.066;2022-12-29T06:51:40;100148.34;;;10.40;100.00
65760;BME280;52496;51.082;5.066;2022-12-29T06:54:11;100150.00;;;10.41;100.00
65760;BME280;52496;51.082;5.066;2022-12-29T06:56:42;100151.84;;;10.40;100.00
65760;BME280;52496;51.082;5.066;2022-12-29T06:59:12;100156.19;;;10.41;100.00
65760;BME280;52496;51.082;5.066;2022-12-29T07:01:43;100167.47;;;10.43;100.00
65760;BME280;52496;51.082;5.066;2022-12-29T07:04:14;100162.38;;;10.48;100.00
65760;BME280;52496;51.082;5.066;2022-12-29T07:06:45;100166.28;;;10.52;100.00
65760;BME280;52496;51.082;5.066;2022-12-29T07:09:15;100155.59;;;10.52;100.00
65760;BME280;52496;51.082;5.066;2022-12-29T07:11:46;100156.00;;;10.49;100.00
65760;BME280;52496;51.082;5.066;2022-12-29T07:14:16;100138.31;;;10.48;100.00
65760;BME280;52496;51.082;5.066;2022-12-29T07:16:47;100147.16;;;10.49;100.00
65760;BME280;52496;51.082;5.066;2022-12-29T07:19:18;100157.03;;;10.48;100.00
65760;BME280;52496;51.082;5.066;2022-12-29T07:21:48;100155.16;;;10.49;100.00
65760;BME280;52496;51.082;5.066;2022-12-29T07:24:22;100152.91;;;10.46;100.00
65760;BME280;52496;51.082;5.066;2022-12-29T07:26:53;100157.44;;;10.45;100.00
65760;BME280;52496;51.082;5.066;2022-12-29T07:29:23;100167.31;;;10.45;100.00
65760;BME280;52496;51.082;5.066;2022-12-29T07:31:54;100161.75;;;10.46;98.71
65760;BME280;52496;51.082;5.066;2022-12-29T07:34:24;100161.13;;;10.44;99.68
65760;BME280;52496;51.082;5.066;2022-12-29T07:36:55;100163.41;;;10.47;99.51
65760;BME280;52496;51.082;5.066;2022-12-29T07:39:26;100170.78;;;10.45;98.23
65760;BME280;52496;51.082;5.066;2022-12-29T07:41:56;100157.44;;;10.45;98.29
65760;BME280;52496;51.082;5.066;2022-12-29T07:44:27;100160.09;;;10.45;98.50
65760;BME280;52496;51.082;5.066;2022-12-29T07:46:57;100167.47;;;10.43;98.91
65760;BME280;52496;51.082;5.066;2022-12-29T07:49:28;100172.22;;;10.41;98.04
65760;BME280;52496;51.082;5.066;2022-12-29T07:51:58;100160.69;;;10.41;97.63
65760;BME280;52496;51.082;5.066;2022-12-29T07:54:30;100170.16;;;10.43;95.19
65760;BME280;52496;51.082;5.066;2022-12-29T07:57:01;100180.06;;;10.49;95.69
65760;BME280;52496;51.082;5.066;2022-12-29T07:59:31;100168.13;;;10.52;96.45
65760;BME280;52496;51.082;5.066;2022-12-29T08:02:02;100177.59;;;10.54;95.07
65760;BME280;52496;51.082;5.066;2022-12-29T08:04:33;100192.03;;;10.60;94.95
65760;BME280;52496;51.082;5.066;2022-12-29T08:07:03;100193.66;;;10.61;95.22
65760;BME280;52496;51.082;5.066;2022-12-29T08:09:34;100174.13;;;10.61;96.44
65760;BME280;52496;51.082;5.066;2022-12-29T08:12:05;100192.84;;;10.61;96.57
65760;BME280;52496;51.082;5.066;2022-12-29T08:14:36;100193.66;;;10.61;97.58
65760;BME280;52496;51.082;5.066;2022-12-29T08:17:06;100190.81;;;10.63;96.69
65760;BME280;52496;51.082;5.066;2022-12-29T08:19:37;100191.41;;;10.65;94.23
65760;BME280;52496;51.082;5.066;2022-12-29T08:22:07;100194.53;;;10.68;95.03
65760;BME280;52496;51.082;5.066;2022-12-29T08:24:38;100203.97;;;10.71;95.74
65760;BME280;52496;51.082;5.066;2022-12-29T08:27:08;100203.56;;;10.74;96.09
65760;BME280;52496;51.082;5.066;2022-12-29T08:29:39;100195.78;;;10.79;95.75
65760;BME280;52496;51.082;5.066;2022-12-29T08:32:10;100197.88;;;10.84;95.20
65760;BME280;52496;51.082;5.066;2022-12-29T08:34:41;100201.16;;;10.86;95.04
65760;BME280;52496;51.082;5.066;2022-12-29T08:37:12;100213.91;;;10.84;95.54
65760;BME280;52496;51.082;5.066;2022-12-29T08:39:42;100199.91;;;10.82;95.89
65760;BME280;52496;51.082;5.066;2022-12-29T08:42:13;100210.63;;;10.82;95.84
65760;BME280;52496;51.082;5.066;2022-12-29T08:44:43;100214.31;;;10.81;95.77
65760;BME280;52496;51.082;5.066;2022-12-29T08:47:14;100204.44;;;10.81;96.39
65760;BME280;52496;51.082;5.066;2022-12-29T08:49:45;100201.13;;;10.79;95.11
65760;BME280;52496;51.082;5.066;2022-12-29T08:52:15;100213.47;;;10.80;96.08
65760;BME280;52496;51.082;5.066;2022-12-29T08:54:46;100209.16;;;10.79;94.96
65760;BME280;52496;51.082;5.066;2022-12-29T08:57:16;100212.66;;;10.79;94.27
65760;BME280;52496;51.082;5.066;2022-12-29T08:59:47;100209.16;;;10.79;94.29
65760;BME280;52496;51.082;5.066;2022-12-29T09:02:17;100204.44;;;10.81;94.27
65760;BME280;52496;51.082;5.066;2022-12-29T09:04:48;100211.44;;;10.82;93.85
65760;BME280;52496;51.082;5.066;2022-12-29T09:07:18;100221.72;;;10.85;93.81
65760;BME280;52496;51.082;5.066;2022-12-29T09:09:49;100219.69;;;10.87;93.00
65760;BME280;52496;51.082;5.066;2022-12-29T09:12:20;100234.06;;;10.86;94.23
65760;BME280;52496;51.082;5.066;2022-12-29T09:14:51;100238.59;;;10.86;93.52
65760;BME280;52496;51.082;5.066;2022-12-29T09:17:21;100239.41;;;10.86;93.74
65760;BME280;52496;51.082;5.066;2022-12-29T09:20:16;100236.97;;;10.91;93.81
65760;BME280;52496;51.082;5.066;2022-12-29T09:22:47;100239.88;;;10.96;92.89
65760;BME280;52496;51.082;5.066;2022-12-29T09:25:19;100248.50;;;10.98;93.73
65760;BME280;52496;51.082;5.066;2022-12-29T09:27:53;100243.16;;;10.98;93.78
65760;BME280;52496;51.082;5.066;2022-12-29T09:30:24;100241.34;;;10.99;93.76
65760;BME280;52496;51.082;5.066;2022-12-29T09:32:54;100240.28;;;11.00;93.90
65760;BME280;52496;51.082;5.066;2022-12-29T09:35:24;100238.44;;;11.00;94.76
65760;BME280;52496;51.082;5.066;2022-12-29T09:37:55;100249.78;;;11.02;93.92
65760;BME280;52496;51.082;5.066;2022-12-29T09:40:31;100262.94;;;11.11;93.77
65760;BME280;52496;51.082;5.066;2022-12-29T09:43:21;100264.84;;;11.17;94.27
65760;BME280;52496;51.082;5.066;2022-12-29T09:48:47;100273.66;;;11.11;96.11
65760;BME280;52496;51.082;5.066;2022-12-29T09:51:23;100272.81;;;11.03;94.17
65760;BME280;52496;51.082;5.066;2022-12-29T09:54:02;100289.28;;;11.00;95.48
65760;BME280;52496;51.082;5.066;2022-12-29T09:56:34;100306.53;;;10.98;95.63
65760;BME280;52496;51.082;5.066;2022-12-29T09:59:11;100316.81;;;10.94;96.80
65760;BME280;52496;51.082;5.066;2022-12-29T10:04:28;100321.34;;;10.87;98.61
65760;BME280;52496;51.082;5.066;2022-12-29T10:07:08;100331.59;;;10.84;99.04
65760;BME280;52496;51.082;5.066;2022-12-29T10:15:49;100328.09;;;10.83;98.65
65760;BME280;52496;51.082;5.066;2022-12-29T10:21:47;100336.75;;;10.85;94.18
65760;BME280;52496;51.082;5.066;2022-12-29T10:24:22;100337.59;;;10.92;96.89
65760;BME280;52496;51.082;5.066;2022-12-29T10:26:55;100344.22;;;10.96;94.61
65760;BME280;52496;51.082;5.066;2022-12-29T10:29:33;100329.41;;;11.00;94.52
65760;BME280;52496;51.082;5.066;2022-12-29T10:32:17;100344.66;;;11.07;95.62
65760;BME280;52496;51.082;5.066;2022-12-29T10:34:56;100355.59;;;11.12;95.06
65760;BME280;52496;51.082;5.066;2022-12-29T10:43:07;100370.50;;;11.34;92.26
65760;BME280;52496;51.082;5.066;2022-12-29T10:45:43;100367.25;;;11.45;89.84
65760;BME280;52496;51.082;5.066;2022-12-29T10:48:40;100364.81;;;11.57;89.48
65760;BME280;52496;51.082;5.066;2022-12-29T10:51:26;100371.63;;;11.66;90.98
65760;BME280;52496;51.082;5.066;2022-12-29T10:54:04;100374.72;;;11.70;88.49
65760;BME280;52496;51.082;5.066;2022-12-29T10:56:56;100394.91;;;11.73;89.37
65760;BME280;52496;51.082;5.066;2022-12-29T10:59:31;100376.16;;;11.73;88.39
65760;BME280;52496;51.082;5.066;2022-12-29T11:07:35;100393.47;;;11.70;87.71
65760;BME280;52496;51.082;5.066;2022-12-29T11:13:01;100392.63;;;11.63;88.18
65760;BME280;52496;51.082;5.066;2022-12-29T11:15:48;100408.06;;;11.61;87.90
65760;BME280;52496;51.082;5.066;2022-12-29T11:18:30;100420.81;;;11.59;88.56
65760;BME280;52496;51.082;5.066;2022-12-29T11:21:04;100415.88;;;11.56;87.52
65760;BME280;52496;51.082;5.066;2022-12-29T11:23:38;100428.25;;;11.57;87.09
65760;BME280;52496;51.082;5.066;2022-12-29T11:26:25;100408.88;;;11.55;87.53
65760;BME280;52496;51.082;5.066;2022-12-29T11:31:52;100421.03;;;11.57;87.46
65760;BME280;52496;51.082;5.066;2022-12-29T11:34:26;100417.13;;;11.60;87.30
65760;BME280;52496;51.082;5.066;2022-12-29T11:37:05;100428.47;;;11.62;87.13
65760;BME280;52496;51.082;5.066;2022-12-29T11:39:57;100428.66;;;11.60;87.37
65760;BME280;52496;51.082;5.066;2022-12-29T11:42:39;100429.47;;;11.54;86.72
65760;BME280;52496;51.082;5.066;2022-12-29T11:45:29;100428.22;;;11.50;86.66
65760;BME280;52496;51.082;5.066;2022-12-29T11:48:06;100430.69;;;11.45;87.84
65760;BME280;52496;51.082;5.066;2022-12-29T11:50:40;100432.31;;;11.39;86.52
65760;BME280;52496;51.082;5.066;2022-12-29T11:56:02;100448.75;;;11.36;88.71
65760;BME280;52496;51.082;5.066;2022-12-29T11:58:36;100440.09;;;11.34;89.83
65760;BME280;52496;51.082;5.066;2022-12-29T12:01:23;100447.13;;;11.35;90.75
65760;BME280;52496;51.082;5.066;2022-12-29T12:04:00;100459.84;;;11.27;91.75
65760;BME280;52496;51.082;5.066;2022-12-29T12:06:36;100452.59;;;11.20;94.62
65760;BME280;52496;51.082;5.066;2022-12-29T12:09:29;100446.19;;;11.15;95.97
65760;BME280;52496;51.082;5.066;2022-12-29T12:12:02;100458.69;;;11.08;98.00
65760;BME280;52496;51.082;5.066;2022-12-29T12:14:40;100455.16;;;11.00;98.74
65760;BME280;52496;51.082;5.066;2022-12-29T12:17:27;100452.22;;;10.95;100.00
65760;BME280;52496;51.082;5.066;2022-12-29T12:20:58;100455.50;;;10.91;99.01
65760;BME280;52496;51.082;5.066;2022-12-29T12:26:16;100457.66;;;10.74;100.00
65760;BME280;52496;51.082;5.066;2022-12-29T12:28:55;100454.16;;;10.73;100.00
65760;BME280;52496;51.082;5.066;2022-12-29T12:31:51;100462.59;;;10.77;100.00
65760;BME280;52496;51.082;5.066;2022-12-29T12:43:03;100463.25;;;10.79;100.00
65760;BME280;52496;51.082;5.066;2022-12-29T12:49:02;100470.06;;;10.82;100.00
65760;BME280;52496;51.082;5.066;2022-12-29T12:52:03;100468.22;;;10.82;100.00
65760;BME280;52496;51.082;5.066;2022-12-29T13:00:09;100460.50;;;11.00;97.08
65760;BME280;52496;51.082;5.066;2022-12-29T13:10:59;100467.59;;;11.15;97.47
65760;BME280;52496;51.082;5.066;2022-12-29T13:13:54;100466.56;;;11.16;96.87
65760;BME280;52496;51.082;5.066;2022-12-29T13:16:38;100475.41;;;11.16;97.18
65760;BME280;52496;51.082;5.066;2022-12-29T13:19:34;100474.41;;;11.17;96.58
65760;BME280;52496;51.082;5.066;2022-12-29T13:22:18;100464.28;;;11.13;96.50
65760;BME280;52496;51.082;5.066;2022-12-29T13:24:58;100456.84;;;11.08;96.44
65760;BME280;52496;51.082;5.066;2022-12-29T13:39:12;100463.28;;;10.86;95.74
65760;BME280;52496;51.082;5.066;2022-12-29T13:41:55;100474.38;;;10.83;96.15
65760;BME280;52496;51.082;5.066;2022-12-29T13:44:40;100471.09;;;10.81;95.21
65760;BME280;52496;51.082;5.066;2022-12-29T13:47:26;100463.25;;;10.79;95.00
65760;BME280;52496;51.082;5.066;2022-12-29T13:49:58;100475.78;;;10.78;94.44
65760;BME280;52496;51.082;5.066;2022-12-29T13:55:39;100491.16;;;10.70;95.39
65760;BME280;52496;51.082;5.066;2022-12-29T14:01:17;100490.06;;;10.64;98.02
65760;BME280;52496;51.082;5.066;2022-12-29T14:03:52;100491.50;;;10.60;96.31
65760;BME280;52496;51.082;5.066;2022-12-29T14:06:25;100501.38;;;10.60;96.83
65760;BME280;52496;51.082;5.066;2022-12-29T14:09:02;100493.97;;;10.62;96.98
65760;BME280;52496;51.082;5.066;2022-12-29T14:11:38;100482.06;;;10.64;95.76
65760;BME280;52496;51.082;5.066;2022-12-29T14:14:22;100482.50;;;10.68;96.01
65760;BME280;52496;51.082;5.066;2022-12-29T14:16:53;100486.59;;;10.64;94.73
65760;BME280;52496;51.082;5.066;2022-12-29T14:19:30;100485.72;;;10.56;95.03
65760;BME280;52496;51.082;5.066;2022-12-29T14:22:03;100489.78;;;10.52;95.58
65760;BME280;52496;51.082;5.066;2022-12-29T14:29:47;100497.56;;;10.47;94.47
65760;BME280;52496;51.082;5.066;2022-12-29T14:37:27;100503.28;;;10.44;94.57
65760;BME280;52496;51.082;5.066;2022-12-29T14:40:18;100509.63;;;10.43;94.29
65760;BME280;52496;51.082;5.066;2022-12-29T14:42:51;100506.97;;;10.43;95.23
65760;BME280;52496;51.082;5.066;2022-12-29T14:45:30;100508.00;;;10.42;95.97
65760;BME280;52496;51.082;5.066;2022-12-29T14:50:54;100509.41;;;10.38;95.31
65760;BME280;52496;51.082;5.066;2022-12-29T14:53:47;100509.78;;;10.35;98.39
65760;BME280;52496;51.082;5.066;2022-12-29T14:56:23;100515.03;;;10.28;100.00
65760;BME280;52496;51.082;5.066;2022-12-29T14:59:01;100517.81;;;10.20;100.00
65760;BME280;52496;51.082;5.066;2022-12-29T15:04:24;100526.06;;;10.04;100.00
65760;BME280;52496;51.082;5.066;2022-12-29T15:06:55;100549.84;;;9.99;100.00
65760;BME280;52496;51.082;5.066;2022-12-29T15:09:30;100567.84;;;9.90;100.00
65760;BME280;52496;51.082;5.066;2022-12-29T15:15:21;100569.69;;;9.30;100.00
65760;BME280;52496;51.082;5.066;2022-12-29T15:17:52;100583.34;;;9.12;100.00
65760;BME280;52496;51.082;5.066;2022-12-29T15:20:29;100581.50;;;8.98;100.00
65760;BME280;52496;51.082;5.066;2022-12-29T15:23:11;100589.47;;;8.83;100.00
65760;BME280;52496;51.082;5.066;2022-12-29T15:25:56;100577.72;;;8.69;100.00
65760;BME280;52496;51.082;5.066;2022-12-29T15:28:40;100582.47;;;8.59;100.00
65760;BME280;52496;51.082;5.066;2022-12-29T15:31:23;100593.03;;;8.53;100.00
65760;BME280;52496;51.082;5.066;2022-12-29T15:34:03;100598.41;;;8.44;100.00